sensor_id;sensor_type;location;lat;lon;timestamp;P1;durP1;ratioP1;P2;durP2;ratioP2
23406;SDS011;11876;53.438;18.942;2023-04-25T00:01:30;16.17;;;14.57;;
23406;SDS011;11876;53.438;18.942;2023-04-25T00:04:35;19.65;;;15.85;;
23406;SDS011;11876;53.438;18.942;2023-04-25T00:07:40;17.00;;;15.20;;
23406;SDS011;11876;53.438;18.942;2023-04-25T00:10:44;16.52;;;14.82;;
23406;SDS011;11876;53.438;18.942;2023-04-25T00:13:46;15.93;;;14.18;;
23406;SDS011;11876;53.438;18.942;2023-04-25T00:16:51;15.60;;;14.05;;
23406;SDS011;11876;53.438;18.942;2023-04-25T00:19:53;17.92;;;14.70;;
23406;SDS011;11876;53.438;18.942;2023-04-25T00:22:56;14.98;;;13.48;;
23406;SDS011;11876;53.438;18.942;2023-04-25T00:25:58;16.90;;;15.30;;
23406;SDS011;11876;53.438;18.942;2023-04-25T00:29:00;13.30;;;11.90;;
23406;SDS011;11876;53.438;18.942;2023-04-25T00:32:03;13.85;;;12.43;;
23406;SDS011;11876;53.438;18.942;2023-04-25T00:35:06;12.98;;;11.63;;
23406;SDS011;11876;53.438;18.942;2023-04-25T00:38:08;13.80;;;10.88;;
23406;SDS011;11876;53.438;18.942;2023-04-25T00:41:11;12.50;;;11.30;;
23406;SDS011;11876;53.438;18.942;2023-04-25T00:44:13;12.23;;;10.32;;
23406;SDS011;11876;53.438;18.942;2023-04-25T00:47:18;11.50;;;10.30;;
23406;SDS011;11876;53.438;18.942;2023-04-25T00:50:21;12.65;;;11.30;;
23406;SDS011;11876;53.438;18.942;2023-04-25T00:53:24;12.68;;;10.77;;
23406;SDS011;11876;53.438;18.942;2023-04-25T00:56:28;11.10;;;10.00;;
23406;SDS011;11876;53.438;18.942;2023-04-25T00:59:31;11.18;;;9.98;;
23406;SDS011;11876;53.438;18.942;2023-04-25T01:02:33;11.55;;;10.23;;
23406;SDS011;11876;53.438;18.942;2023-04-25T01:05:37;11.05;;;9.60;;
23406;SDS011;11876;53.438;18.942;2023-04-25T01:08:40;10.50;;;9.38;;
23406;SDS011;11876;53.438;18.942;2023-04-25T01:11:43;10.52;;;9.40;;
23406;SDS011;11876;53.438;18.942;2023-04-25T01:14:46;10.23;;;9.13;;
23406;SDS011;11876;53.438;18.942;2023-04-25T01:17:48;11.48;;;9.73;;
23406;SDS011;11876;53.438;18.942;2023-04-25T01:20:51;10.35;;;9.35;;
23406;SDS011;11876;53.438;18.942;2023-04-25T01:23:55;11.60;;;9.85;;
23406;SDS011;11876;53.438;18.942;2023-04-25T01:26:58;13.13;;;9.75;;
23406;SDS011;11876;53.438;18.942;2023-04-25T01:30:04;10.82;;;9.73;;
23406;SDS011;11876;53.438;18.942;2023-04-25T01:33:08;10.50;;;9.40;;
23406;SDS011;11876;53.438;18.942;2023-04-25T01:36:11;10.65;;;9.57;;
23406;SDS011;11876;53.438;18.942;2023-04-25T01:39:15;10.00;;;9.00;;
23406;SDS011;11876;53.438;18.942;2023-04-25T01:42:19;10.50;;;9.50;;
23406;SDS011;11876;53.438;18.942;2023-04-25T01:45:21;11.70;;;10.50;;
23406;SDS011;11876;53.438;18.942;2023-04-25T01:48:25;10.73;;;9.60;;
23406;SDS011;11876;53.438;18.942;2023-04-25T01:51:28;10.05;;;9.05;;
23406;SDS011;11876;53.438;18.942;2023-04-25T01:54:31;10.63;;;9.53;;
23406;SDS011;11876;53.438;18.942;2023-04-25T01:57:34;11.50;;;9.50;;
23406;SDS011;11876;53.438;18.942;2023-04-25T02:00:37;12.32;;;9.93;;
23406;SDS011;11876;53.438;18.942;2023-04-25T02:03:40;10.93;;;9.85;;
23406;SDS011;11876;53.438;18.942;2023-04-25T02:06:51;10.05;;;9.05;;
23406;SDS011;11876;53.438;18.942;2023-04-25T02:09:54;11.15;;;9.98;;
23406;SDS011;11876;53.438;18.942;2023-04-25T02:12:59;10.32;;;9.32;;
23406;SDS011;11876;53.438;18.942;2023-04-25T02:16:15;9.45;;;8.50;;
23406;SDS011;11876;53.438;18.942;2023-04-25T02:19:18;11.18;;;10.07;;
23406;SDS011;11876;53.438;18.942;2023-04-25T02:22:21;10.55;;;8.57;;
23406;SDS011;11876;53.438;18.942;2023-04-25T02:25:24;10.57;;;9.32;;
23406;SDS011;11876;53.438;18.942;2023-04-25T02:28:27;7.25;;;6.60;;
23406;SDS011;11876;53.438;18.942;2023-04-25T02:31:29;9.77;;;8.65;;
23406;SDS011;11876;53.438;18.942;2023-04-25T02:34:32;10.80;;;9.05;;
23406;SDS011;11876;53.438;18.942;2023-04-25T02:37:35;13.73;;;9.95;;
23406;SDS011;11876;53.438;18.942;2023-04-25T02:40:40;11.18;;;9.57;;
23406;SDS011;11876;53.438;18.942;2023-04-25T02:43:42;13.73;;;11.18;;
23406;SDS011;11876;53.438;18.942;2023-04-25T02:46:45;10.95;;;9.95;;
23406;SDS011;11876;53.438;18.942;2023-04-25T02:49:48;12.27;;;10.95;;
23406;SDS011;11876;53.438;18.942;2023-04-25T02:52:50;11.52;;;10.43;;
23406;SDS011;11876;53.438;18.942;2023-04-25T02:55:59;12.85;;;11.55;;
23406;SDS011;11876;53.438;18.942;2023-04-25T02:59:01;14.20;;;12.20;;
23406;SDS011;11876;53.438;18.942;2023-04-25T03:05:08;11.95;;;10.85;;
23406;SDS011;11876;53.438;18.942;2023-04-25T03:08:12;14.25;;;12.88;;
23406;SDS011;11876;53.438;18.942;2023-04-25T03:11:14;12.65;;;11.45;;
23406;SDS011;11876;53.438;18.942;2023-04-25T03:14:17;13.10;;;10.73;;
23406;SDS011;11876;53.438;18.942;2023-04-25T03:17:19;12.20;;;11.00;;
23406;SDS011;11876;53.438;18.942;2023-04-25T03:20:23;14.95;;;11.57;;
23406;SDS011;11876;53.438;18.942;2023-04-25T03:23:26;13.30;;;12.00;;
23406;SDS011;11876;53.438;18.942;2023-04-25T03:26:28;12.02;;;10.93;;
23406;SDS011;11876;53.438;18.942;2023-04-25T03:29:31;11.57;;;10.38;;
23406;SDS011;11876;53.438;18.942;2023-04-25T03:32:37;11.68;;;10.57;;
23406;SDS011;11876;53.438;18.942;2023-04-25T03:35:40;12.37;;;11.17;;
23406;SDS011;11876;53.438;18.942;2023-04-25T03:38:45;12.30;;;11.15;;
23406;SDS011;11876;53.438;18.942;2023-04-25T03:41:49;12.40;;;11.13;;
23406;SDS011;11876;53.438;18.942;2023-04-25T03:44:53;13.18;;;11.80;;
23406;SDS011;11876;53.438;18.942;2023-04-25T03:47:56;12.55;;;11.25;;
23406;SDS011;11876;53.438;18.942;2023-04-25T03:51:02;13.38;;;11.10;;
23406;SDS011;11876;53.438;18.942;2023-04-25T03:54:07;11.60;;;10.40;;
23406;SDS011;11876;53.438;18.942;2023-04-25T03:57:26;10.57;;;9.57;;
23406;SDS011;11876;53.438;18.942;2023-04-25T04:00:29;9.48;;;8.57;;
23406;SDS011;11876;53.438;18.942;2023-04-25T04:03:32;8.85;;;7.63;;
23406;SDS011;11876;53.438;18.942;2023-04-25T04:06:34;8.82;;;8.02;;
23406;SDS011;11876;53.438;18.942;2023-04-25T04:09:52;8.32;;;7.53;;
23406;SDS011;11876;53.438;18.942;2023-04-25T04:13:00;9.57;;;7.88;;
23406;SDS011;11876;53.438;18.942;2023-04-25T04:16:03;10.82;;;8.10;;
23406;SDS011;11876;53.438;18.942;2023-04-25T04:19:06;6.50;;;5.90;;
23406;SDS011;11876;53.438;18.942;2023-04-25T04:22:10;7.53;;;6.82;;
23406;SDS011;11876;53.438;18.942;2023-04-25T04:25:14;8.35;;;7.60;;
23406;SDS011;11876;53.438;18.942;2023-04-25T04:28:42;8.35;;;7.65;;
23406;SDS011;11876;53.438;18.942;2023-04-25T04:31:57;10.15;;;9.15;;
23406;SDS011;11876;53.438;18.942;2023-04-25T04:34:59;8.23;;;7.43;;
23406;SDS011;11876;53.438;18.942;2023-04-25T04:38:02;7.90;;;6.47;;
23406;SDS011;11876;53.438;18.942;2023-04-25T04:41:09;5.90;;;5.30;;
23406;SDS011;11876;53.438;18.942;2023-04-25T04:44:34;5.68;;;5.18;;
23406;SDS011;11876;53.438;18.942;2023-04-25T04:48:01;5.38;;;4.88;;
23406;SDS011;11876;53.438;18.942;2023-04-25T04:51:06;4.75;;;4.28;;
23406;SDS011;11876;53.438;18.942;2023-04-25T04:54:11;5.22;;;4.75;;
23406;SDS011;11876;53.438;18.942;2023-04-25T04:57:45;5.70;;;4.40;;
23406;SDS011;11876;53.438;18.942;2023-04-25T05:01:06;6.20;;;4.40;;
23406;SDS011;11876;53.438;18.942;2023-04-25T05:04:30;6.60;;;5.00;;
23406;SDS011;11876;53.438;18.942;2023-04-25T05:07:59;4.53;;;4.13;;
23406;SDS011;11876;53.438;18.942;2023-04-25T05:11:15;4.82;;;4.40;;
23406;SDS011;11876;53.438;18.942;2023-04-25T05:14:47;4.30;;;3.90;;
23406;SDS011;11876;53.438;18.942;2023-04-25T05:18:15;4.60;;;4.20;;
23406;SDS011;11876;53.438;18.942;2023-04-25T05:21:30;5.32;;;4.82;;
23406;SDS011;11876;53.438;18.942;2023-04-25T05:24:39;5.88;;;4.40;;
23406;SDS011;11876;53.438;18.942;2023-04-25T05:28:04;4.60;;;4.20;;
23406;SDS011;11876;53.438;18.942;2023-04-25T05:31:16;4.90;;;4.40;;
23406;SDS011;11876;53.438;18.942;2023-04-25T05:34:24;4.75;;;4.28;;
23406;SDS011;11876;53.438;18.942;2023-04-25T05:37:33;5.38;;;4.88;;
23406;SDS011;11876;53.438;18.942;2023-04-25T05:40:44;5.10;;;4.05;;
23406;SDS011;11876;53.438;18.942;2023-04-25T05:43:55;6.10;;;5.50;;
23406;SDS011;11876;53.438;18.942;2023-04-25T05:47:31;5.60;;;5.10;;
23406;SDS011;11876;53.438;18.942;2023-04-25T05:50:53;5.38;;;4.88;;
23406;SDS011;11876;53.438;18.942;2023-04-25T05:54:24;5.93;;;5.25;;
23406;SDS011;11876;53.438;18.942;2023-04-25T05:57:29;7.75;;;5.45;;
23406;SDS011;11876;53.438;18.942;2023-04-25T06:00:32;5.57;;;5.07;;
23406;SDS011;11876;53.438;18.942;2023-04-25T06:03:35;5.88;;;5.20;;
23406;SDS011;11876;53.438;18.942;2023-04-25T06:06:39;6.70;;;5.63;;
23406;SDS011;11876;53.438;18.942;2023-04-25T06:09:42;6.50;;;5.63;;
23406;SDS011;11876;53.438;18.942;2023-04-25T06:12:45;4.43;;;4.00;;
23406;SDS011;11876;53.438;18.942;2023-04-25T06:15:50;5.95;;;5.00;;
23406;SDS011;11876;53.438;18.942;2023-04-25T06:18:52;5.53;;;4.97;;
23406;SDS011;11876;53.438;18.942;2023-04-25T06:21:55;5.82;;;5.22;;
23406;SDS011;11876;53.438;18.942;2023-04-25T06:24:57;6.68;;;5.57;;
23406;SDS011;11876;53.438;18.942;2023-04-25T06:28:02;5.93;;;5.07;;
23406;SDS011;11876;53.438;18.942;2023-04-25T06:31:05;4.00;;;3.65;;
23406;SDS011;11876;53.438;18.942;2023-04-25T06:34:08;6.05;;;5.05;;
23406;SDS011;11876;53.438;18.942;2023-04-25T06:37:14;5.65;;;4.45;;
23406;SDS011;11876;53.438;18.942;2023-04-25T06:40:16;6.18;;;5.57;;
23406;SDS011;11876;53.438;18.942;2023-04-25T06:43:19;5.72;;;4.28;;
23406;SDS011;11876;53.438;18.942;2023-04-25T06:46:48;5.78;;;4.68;;
23406;SDS011;11876;53.438;18.942;2023-04-25T06:49:51;4.85;;;4.07;;
23406;SDS011;11876;53.438;18.942;2023-04-25T06:52:54;5.80;;;3.75;;
23406;SDS011;11876;53.438;18.942;2023-04-25T06:55:57;5.32;;;4.80;;
23406;SDS011;11876;53.438;18.942;2023-04-25T06:59:07;4.18;;;3.78;;
23406;SDS011;11876;53.438;18.942;2023-04-25T07:02:12;5.30;;;4.53;;
23406;SDS011;11876;53.438;18.942;2023-04-25T07:05:16;5.32;;;4.30;;
23406;SDS011;11876;53.438;18.942;2023-04-25T07:08:20;5.28;;;4.60;;
23406;SDS011;11876;53.438;18.942;2023-04-25T07:11:23;5.22;;;4.63;;
23406;SDS011;11876;53.438;18.942;2023-04-25T07:14:25;4.68;;;4.20;;
23406;SDS011;11876;53.438;18.942;2023-04-25T07:17:28;5.00;;;4.55;;
23406;SDS011;11876;53.438;18.942;2023-04-25T07:20:31;4.78;;;4.28;;
23406;SDS011;11876;53.438;18.942;2023-04-25T07:26:44;5.05;;;4.55;;
23406;SDS011;11876;53.438;18.942;2023-04-25T07:29:53;6.82;;;4.82;;
23406;SDS011;11876;53.438;18.942;2023-04-25T07:32:57;4.10;;;3.70;;
23406;SDS011;11876;53.438;18.942;2023-04-25T07:35:59;4.80;;;4.30;;
23406;SDS011;11876;53.438;18.942;2023-04-25T07:39:02;5.30;;;4.80;;
23406;SDS011;11876;53.438;18.942;2023-04-25T07:42:05;6.50;;;4.93;;
23406;SDS011;11876;53.438;18.942;2023-04-25T07:45:13;4.80;;;4.30;;
23406;SDS011;11876;53.438;18.942;2023-04-25T07:48:18;5.82;;;4.63;;
23406;SDS011;11876;53.438;18.942;2023-04-25T07:51:22;5.28;;;4.50;;
23406;SDS011;11876;53.438;18.942;2023-04-25T07:54:27;4.85;;;4.35;;
23406;SDS011;11876;53.438;18.942;2023-04-25T07:57:36;4.57;;;4.00;;
23406;SDS011;11876;53.438;18.942;2023-04-25T08:00:39;5.22;;;4.72;;
23406;SDS011;11876;53.438;18.942;2023-04-25T08:04:03;4.20;;;3.90;;
23406;SDS011;11876;53.438;18.942;2023-04-25T08:07:26;6.32;;;4.07;;
23406;SDS011;11876;53.438;18.942;2023-04-25T08:10:32;3.95;;;3.63;;
23406;SDS011;11876;53.438;18.942;2023-04-25T08:13:34;4.13;;;3.42;;
23406;SDS011;11876;53.438;18.942;2023-04-25T08:16:37;4.35;;;3.38;;
23406;SDS011;11876;53.438;18.942;2023-04-25T08:19:40;4.07;;;3.67;;
23406;SDS011;11876;53.438;18.942;2023-04-25T08:22:49;5.00;;;3.97;;
23406;SDS011;11876;53.438;18.942;2023-04-25T08:26:12;5.18;;;4.35;;
23406;SDS011;11876;53.438;18.942;2023-04-25T08:29:16;4.32;;;3.80;;
23406;SDS011;11876;53.438;18.942;2023-04-25T08:32:19;3.40;;;3.10;;
23406;SDS011;11876;53.438;18.942;2023-04-25T08:35:49;3.60;;;3.30;;
23406;SDS011;11876;53.438;18.942;2023-04-25T08:38:53;2.90;;;2.70;;
23406;SDS011;11876;53.438;18.942;2023-04-25T08:41:56;3.53;;;3.15;;
23406;SDS011;11876;53.438;18.942;2023-04-25T08:44:59;2.95;;;2.75;;
23406;SDS011;11876;53.438;18.942;2023-04-25T08:48:11;3.15;;;2.78;;
23406;SDS011;11876;53.438;18.942;2023-04-25T08:51:16;4.97;;;3.70;;
23406;SDS011;11876;53.438;18.942;2023-04-25T08:54:29;2.90;;;2.70;;
23406;SDS011;11876;53.438;18.942;2023-04-25T08:57:38;2.90;;;2.70;;
23406;SDS011;11876;53.438;18.942;2023-04-25T09:00:45;2.60;;;2.33;;
23406;SDS011;11876;53.438;18.942;2023-04-25T09:03:49;3.22;;;2.80;;
23406;SDS011;11876;53.438;18.942;2023-04-25T09:06:52;3.25;;;3.00;;
23406;SDS011;11876;53.438;18.942;2023-04-25T09:09:55;3.38;;;2.70;;
23406;SDS011;11876;53.438;18.942;2023-04-25T09:13:04;4.93;;;3.17;;
23406;SDS011;11876;53.438;18.942;2023-04-25T09:16:32;3.53;;;3.05;;
23406;SDS011;11876;53.438;18.942;2023-04-25T09:19:53;3.28;;;2.97;;
23406;SDS011;11876;53.438;18.942;2023-04-25T09:23:05;4.70;;;2.78;;
23406;SDS011;11876;53.438;18.942;2023-04-25T09:26:14;3.53;;;2.88;;
23406;SDS011;11876;53.438;18.942;2023-04-25T09:29:24;3.33;;;3.03;;
23406;SDS011;11876;53.438;18.942;2023-04-25T09:32:32;2.38;;;2.17;;
23406;SDS011;11876;53.438;18.942;2023-04-25T09:35:40;2.80;;;2.60;;
23406;SDS011;11876;53.438;18.942;2023-04-25T09:41:57;2.55;;;2.20;;
23406;SDS011;11876;53.438;18.942;2023-04-25T09:44:59;2.55;;;2.33;;
23406;SDS011;11876;53.438;18.942;2023-04-25T09:48:11;2.75;;;2.55;;
23406;SDS011;11876;53.438;18.942;2023-04-25T09:51:21;3.47;;;2.50;;
23406;SDS011;11876;53.438;18.942;2023-04-25T09:54:32;2.05;;;1.95;;
23406;SDS011;11876;53.438;18.942;2023-04-25T09:57:48;3.22;;;2.15;;
23406;SDS011;11876;53.438;18.942;2023-04-25T10:00:52;3.90;;;2.20;;
23406;SDS011;11876;53.438;18.942;2023-04-25T10:04:07;3.72;;;2.25;;
23406;SDS011;11876;53.438;18.942;2023-04-25T10:07:30;2.45;;;2.20;;
23406;SDS011;11876;53.438;18.942;2023-04-25T10:13:37;2.28;;;2.05;;
23406;SDS011;11876;53.438;18.942;2023-04-25T10:16:40;2.80;;;2.08;;
23406;SDS011;11876;53.438;18.942;2023-04-25T10:19:44;2.40;;;2.20;;
23406;SDS011;11876;53.438;18.942;2023-04-25T10:22:46;4.18;;;2.58;;
23406;SDS011;11876;53.438;18.942;2023-04-25T10:25:52;2.83;;;2.38;;
23406;SDS011;11876;53.438;18.942;2023-04-25T10:28:55;2.85;;;2.00;;
23406;SDS011;11876;53.438;18.942;2023-04-25T10:32:05;3.25;;;2.33;;
23406;SDS011;11876;53.438;18.942;2023-04-25T10:35:14;2.95;;;2.38;;
23406;SDS011;11876;53.438;18.942;2023-04-25T10:38:17;8.15;;;2.50;;
23406;SDS011;11876;53.438;18.942;2023-04-25T10:41:21;2.85;;;2.30;;
23406;SDS011;11876;53.438;18.942;2023-04-25T10:44:27;1.75;;;1.63;;
23406;SDS011;11876;53.438;18.942;2023-04-25T10:47:38;2.90;;;2.60;;
23406;SDS011;11876;53.438;18.942;2023-04-25T10:50:46;3.38;;;2.13;;
23406;SDS011;11876;53.438;18.942;2023-04-25T10:56:58;4.28;;;3.13;;
23406;SDS011;11876;53.438;18.942;2023-04-25T11:00:01;2.60;;;2.40;;
23406;SDS011;11876;53.438;18.942;2023-04-25T11:03:15;3.45;;;2.97;;
23406;SDS011;11876;53.438;18.942;2023-04-25T11:09:36;2.47;;;2.28;;
23406;SDS011;11876;53.438;18.942;2023-04-25T11:12:41;2.97;;;2.67;;
23406;SDS011;11876;53.438;18.942;2023-04-25T11:15:43;4.47;;;2.72;;
23406;SDS011;11876;53.438;18.942;2023-04-25T11:18:46;4.50;;;3.00;;
23406;SDS011;11876;53.438;18.942;2023-04-25T11:21:48;3.47;;;2.67;;
23406;SDS011;11876;53.438;18.942;2023-04-25T11:24:51;4.03;;;3.08;;
23406;SDS011;11876;53.438;18.942;2023-04-25T11:27:54;2.88;;;2.67;;
23406;SDS011;11876;53.438;18.942;2023-04-25T11:30:58;3.15;;;2.63;;
23406;SDS011;11876;53.438;18.942;2023-04-25T11:34:01;4.78;;;3.00;;
23406;SDS011;11876;53.438;18.942;2023-04-25T11:37:03;2.97;;;2.75;;
23406;SDS011;11876;53.438;18.942;2023-04-25T11:40:08;1.98;;;1.88;;
23406;SDS011;11876;53.438;18.942;2023-04-25T11:43:14;4.15;;;2.70;;
23406;SDS011;11876;53.438;18.942;2023-04-25T11:46:17;3.10;;;2.30;;
23406;SDS011;11876;53.438;18.942;2023-04-25T11:52:23;2.22;;;2.03;;
23406;SDS011;11876;53.438;18.942;2023-04-25T11:55:26;2.35;;;2.17;;
23406;SDS011;11876;53.438;18.942;2023-04-25T11:58:32;4.47;;;2.83;;
23406;SDS011;11876;53.438;18.942;2023-04-25T12:01:36;12.30;;;3.40;;
23406;SDS011;11876;53.438;18.942;2023-04-25T12:04:40;2.78;;;2.58;;
23406;SDS011;11876;53.438;18.942;2023-04-25T12:07:43;2.60;;;2.40;;
23406;SDS011;11876;53.438;18.942;2023-04-25T12:10:45;2.50;;;2.30;;
23406;SDS011;11876;53.438;18.942;2023-04-25T12:13:51;2.28;;;2.08;;
23406;SDS011;11876;53.438;18.942;2023-04-25T12:16:55;3.08;;;2.83;;
23406;SDS011;11876;53.438;18.942;2023-04-25T12:19:59;3.30;;;3.00;;
23406;SDS011;11876;53.438;18.942;2023-04-25T12:23:05;3.55;;;2.85;;
23406;SDS011;11876;53.438;18.942;2023-04-25T12:26:08;2.72;;;2.53;;
23406;SDS011;11876;53.438;18.942;2023-04-25T12:29:21;2.35;;;2.15;;
23406;SDS011;11876;53.438;18.942;2023-04-25T12:32:27;2.58;;;2.22;;
23406;SDS011;11876;53.438;18.942;2023-04-25T12:35:30;4.25;;;2.67;;
23406;SDS011;11876;53.438;18.942;2023-04-25T12:38:38;2.63;;;2.42;;
23406;SDS011;11876;53.438;18.942;2023-04-25T12:41:41;2.10;;;1.90;;
23406;SDS011;11876;53.438;18.942;2023-04-25T12:44:44;2.08;;;1.88;;
23406;SDS011;11876;53.438;18.942;2023-04-25T12:47:48;2.38;;;1.98;;
23406;SDS011;11876;53.438;18.942;2023-04-25T12:50:50;3.10;;;1.98;;
23406;SDS011;11876;53.438;18.942;2023-04-25T12:53:53;2.28;;;2.08;;
23406;SDS011;11876;53.438;18.942;2023-04-25T12:56:56;2.97;;;2.25;;
23406;SDS011;11876;53.438;18.942;2023-04-25T12:59:58;2.80;;;2.50;;
23406;SDS011;11876;53.438;18.942;2023-04-25T13:03:00;3.92;;;2.63;;
23406;SDS011;11876;53.438;18.942;2023-04-25T13:06:04;4.00;;;2.70;;
23406;SDS011;11876;53.438;18.942;2023-04-25T13:09:07;3.30;;;2.92;;
23406;SDS011;11876;53.438;18.942;2023-04-25T13:12:09;4.47;;;2.45;;
23406;SDS011;11876;53.438;18.942;2023-04-25T13:15:12;3.33;;;2.50;;
23406;SDS011;11876;53.438;18.942;2023-04-25T13:18:16;3.85;;;2.97;;
23406;SDS011;11876;53.438;18.942;2023-04-25T13:21:19;2.92;;;2.63;;
23406;SDS011;11876;53.438;18.942;2023-04-25T13:24:21;3.70;;;3.05;;
23406;SDS011;11876;53.438;18.942;2023-04-25T13:27:24;4.20;;;2.92;;
23406;SDS011;11876;53.438;18.942;2023-04-25T13:30:26;2.90;;;2.60;;
23406;SDS011;11876;53.438;18.942;2023-04-25T13:33:28;4.32;;;2.40;;
23406;SDS011;11876;53.438;18.942;2023-04-25T13:36:31;4.28;;;3.20;;
23406;SDS011;11876;53.438;18.942;2023-04-25T13:39:33;3.97;;;2.80;;
23406;SDS011;11876;53.438;18.942;2023-04-25T13:42:36;4.15;;;3.05;;
23406;SDS011;11876;53.438;18.942;2023-04-25T13:45:39;3.67;;;2.53;;
23406;SDS011;11876;53.438;18.942;2023-04-25T13:48:42;2.97;;;2.78;;
23406;SDS011;11876;53.438;18.942;2023-04-25T13:51:47;3.13;;;2.83;;
23406;SDS011;11876;53.438;18.942;2023-04-25T13:54:50;2.50;;;2.30;;
23406;SDS011;11876;53.438;18.942;2023-04-25T13:57:52;3.08;;;2.80;;
23406;SDS011;11876;53.438;18.942;2023-04-25T14:00:55;4.13;;;2.70;;
23406;SDS011;11876;53.438;18.942;2023-04-25T14:03:57;2.88;;;2.67;;
23406;SDS011;11876;53.438;18.942;2023-04-25T14:07:00;4.78;;;3.10;;
23406;SDS011;11876;53.438;18.942;2023-04-25T14:10:04;3.13;;;2.63;;
23406;SDS011;11876;53.438;18.942;2023-04-25T14:13:07;10.25;;;9.18;;
23406;SDS011;11876;53.438;18.942;2023-04-25T14:16:11;4.72;;;3.75;;
23406;SDS011;11876;53.438;18.942;2023-04-25T14:19:17;10.95;;;9.85;;
23406;SDS011;11876;53.438;18.942;2023-04-25T14:22:22;7.78;;;4.85;;
23406;SDS011;11876;53.438;18.942;2023-04-25T14:25:25;13.65;;;7.15;;
23406;SDS011;11876;53.438;18.942;2023-04-25T14:28:27;5.72;;;4.00;;
23406;SDS011;11876;53.438;18.942;2023-04-25T14:31:30;5.05;;;4.53;;
23406;SDS011;11876;53.438;18.942;2023-04-25T14:34:32;4.85;;;3.95;;
23406;SDS011;11876;53.438;18.942;2023-04-25T14:37:35;13.35;;;5.95;;
23406;SDS011;11876;53.438;18.942;2023-04-25T14:40:37;6.40;;;4.70;;
23406;SDS011;11876;53.438;18.942;2023-04-25T14:43:41;2.70;;;2.50;;
23406;SDS011;11876;53.438;18.942;2023-04-25T14:46:43;10.25;;;5.40;;
23406;SDS011;11876;53.438;18.942;2023-04-25T14:49:46;5.20;;;3.30;;
23406;SDS011;11876;53.438;18.942;2023-04-25T14:52:55;7.68;;;3.90;;
23406;SDS011;11876;53.438;18.942;2023-04-25T14:56:00;7.85;;;3.72;;
23406;SDS011;11876;53.438;18.942;2023-04-25T14:59:03;10.63;;;5.55;;
23406;SDS011;11876;53.438;18.942;2023-04-25T15:02:05;5.72;;;3.90;;
23406;SDS011;11876;53.438;18.942;2023-04-25T15:05:08;8.02;;;6.07;;
23406;SDS011;11876;53.438;18.942;2023-04-25T15:08:11;4.33;;;3.63;;
23406;SDS011;11876;53.438;18.942;2023-04-25T15:11:14;5.05;;;3.83;;
23406;SDS011;11876;53.438;18.942;2023-04-25T15:14:16;7.88;;;4.30;;
23406;SDS011;11876;53.438;18.942;2023-04-25T15:17:19;3.80;;;3.05;;
23406;SDS011;11876;53.438;18.942;2023-04-25T15:20:21;13.82;;;6.70;;
23406;SDS011;11876;53.438;18.942;2023-04-25T15:23:24;9.90;;;5.55;;
23406;SDS011;11876;53.438;18.942;2023-04-25T15:26:29;3.75;;;3.33;;
23406;SDS011;11876;53.438;18.942;2023-04-25T15:29:32;5.53;;;3.33;;
23406;SDS011;11876;53.438;18.942;2023-04-25T15:32:34;12.55;;;5.40;;
23406;SDS011;11876;53.438;18.942;2023-04-25T15:35:36;5.95;;;5.35;;
23406;SDS011;11876;53.438;18.942;2023-04-25T15:38:39;3.35;;;2.40;;
23406;SDS011;11876;53.438;18.942;2023-04-25T15:41:41;3.67;;;2.30;;
23406;SDS011;11876;53.438;18.942;2023-04-25T15:44:44;3.28;;;2.10;;
23406;SDS011;11876;53.438;18.942;2023-04-25T15:47:47;2.47;;;2.28;;
23406;SDS011;11876;53.438;18.942;2023-04-25T15:50:49;2.80;;;2.38;;
23406;SDS011;11876;53.438;18.942;2023-04-25T15:53:52;3.63;;;2.95;;
23406;SDS011;11876;53.438;18.942;2023-04-25T15:56:55;5.20;;;4.57;;
23406;SDS011;11876;53.438;18.942;2023-04-25T15:59:58;8.95;;;6.05;;
23406;SDS011;11876;53.438;18.942;2023-04-25T16:03:00;3.95;;;3.50;;
23406;SDS011;11876;53.438;18.942;2023-04-25T16:06:04;4.93;;;3.25;;
23406;SDS011;11876;53.438;18.942;2023-04-25T16:09:06;4.75;;;3.25;;
23406;SDS011;11876;53.438;18.942;2023-04-25T16:12:09;3.95;;;2.72;;
23406;SDS011;11876;53.438;18.942;2023-04-25T16:15:12;4.85;;;3.63;;
23406;SDS011;11876;53.438;18.942;2023-04-25T16:18:15;3.40;;;2.50;;
23406;SDS011;11876;53.438;18.942;2023-04-25T16:21:17;3.80;;;2.47;;
23406;SDS011;11876;53.438;18.942;2023-04-25T16:24:20;3.40;;;2.88;;
23406;SDS011;11876;53.438;18.942;2023-04-25T16:27:22;7.13;;;3.38;;
23406;SDS011;11876;53.438;18.942;2023-04-25T16:30:24;4.10;;;3.10;;
23406;SDS011;11876;53.438;18.942;2023-04-25T16:33:27;3.95;;;2.95;;
23406;SDS011;11876;53.438;18.942;2023-04-25T16:36:30;5.40;;;4.80;;
23406;SDS011;11876;53.438;18.942;2023-04-25T16:39:33;4.45;;;4.05;;
23406;SDS011;11876;53.438;18.942;2023-04-25T16:42:35;4.78;;;3.72;;
23406;SDS011;11876;53.438;18.942;2023-04-25T16:45:38;4.82;;;3.33;;
23406;SDS011;11876;53.438;18.942;2023-04-25T16:48:40;4.72;;;2.92;;
23406;SDS011;11876;53.438;18.942;2023-04-25T16:51:42;4.93;;;3.10;;
23406;SDS011;11876;53.438;18.942;2023-04-25T16:54:45;5.13;;;3.40;;
23406;SDS011;11876;53.438;18.942;2023-04-25T16:57:47;4.88;;;3.92;;
23406;SDS011;11876;53.438;18.942;2023-04-25T17:00:50;10.15;;;7.20;;
23406;SDS011;11876;53.438;18.942;2023-04-25T17:03:52;9.45;;;4.80;;
23406;SDS011;11876;53.438;18.942;2023-04-25T17:06:55;13.40;;;6.50;;
23406;SDS011;11876;53.438;18.942;2023-04-25T17:09:58;13.50;;;8.65;;
23406;SDS011;11876;53.438;18.942;2023-04-25T17:13:00;11.00;;;6.60;;
23406;SDS011;11876;53.438;18.942;2023-04-25T17:16:03;9.88;;;3.83;;
23406;SDS011;11876;53.438;18.942;2023-04-25T17:19:06;8.38;;;3.83;;
23406;SDS011;11876;53.438;18.942;2023-04-25T17:22:08;5.60;;;4.50;;
23406;SDS011;11876;53.438;18.942;2023-04-25T17:25:10;7.70;;;6.88;;
23406;SDS011;11876;53.438;18.942;2023-04-25T17:28:13;11.73;;;4.40;;
23406;SDS011;11876;53.438;18.942;2023-04-25T17:31:15;10.88;;;5.15;;
23406;SDS011;11876;53.438;18.942;2023-04-25T17:34:18;6.43;;;4.05;;
23406;SDS011;11876;53.438;18.942;2023-04-25T17:37:21;9.68;;;4.38;;
23406;SDS011;11876;53.438;18.942;2023-04-25T17:40:24;7.32;;;3.92;;
23406;SDS011;11876;53.438;18.942;2023-04-25T17:43:27;6.97;;;4.60;;
23406;SDS011;11876;53.438;18.942;2023-04-25T17:46:30;9.88;;;5.53;;
23406;SDS011;11876;53.438;18.942;2023-04-25T17:49:32;10.32;;;5.40;;
23406;SDS011;11876;53.438;18.942;2023-04-25T17:52:34;9.52;;;5.75;;
23406;SDS011;11876;53.438;18.942;2023-04-25T17:58:44;8.70;;;6.10;;
23406;SDS011;11876;53.438;18.942;2023-04-25T18:01:46;10.52;;;6.60;;
23406;SDS011;11876;53.438;18.942;2023-04-25T18:04:49;10.60;;;6.88;;
23406;SDS011;11876;53.438;18.942;2023-04-25T18:07:52;13.52;;;6.70;;
23406;SDS011;11876;53.438;18.942;2023-04-25T18:10:55;12.25;;;6.93;;
23406;SDS011;11876;53.438;18.942;2023-04-25T18:13:58;12.70;;;6.07;;
23406;SDS011;11876;53.438;18.942;2023-04-25T18:17:01;10.63;;;6.05;;
23406;SDS011;11876;53.438;18.942;2023-04-25T18:20:09;10.40;;;6.32;;
23406;SDS011;11876;53.438;18.942;2023-04-25T18:23:15;8.38;;;5.32;;
23406;SDS011;11876;53.438;18.942;2023-04-25T18:26:17;14.30;;;6.47;;
23406;SDS011;11876;53.438;18.942;2023-04-25T18:29:20;15.73;;;6.47;;
23406;SDS011;11876;53.438;18.942;2023-04-25T18:32:31;8.70;;;5.47;;
23406;SDS011;11876;53.438;18.942;2023-04-25T18:35:33;10.82;;;5.15;;
23406;SDS011;11876;53.438;18.942;2023-04-25T18:38:40;12.48;;;5.55;;